sensor_id;sensor_type;location;lat;lon;timestamp;P1;durP1;ratioP1;P2;durP2;ratioP2
77513;SDS011;66626;48.872;9.084;2023-03-01T00:00:54;19.20;;;8.70;;
77513;SDS011;66626;48.872;9.084;2023-03-01T00:03:19;20.30;;;9.65;;
77513;SDS011;66626;48.872;9.084;2023-03-01T00:05:45;18.70;;;8.52;;
77513;SDS011;66626;48.872;9.084;2023-03-01T00:08:11;20.33;;;8.57;;
77513;SDS011;66626;48.872;9.084;2023-03-01T00:10:36;21.38;;;8.13;;
77513;SDS011;66626;48.872;9.084;2023-03-01T00:13:02;21.77;;;8.48;;
77513;SDS011;66626;48.872;9.084;2023-03-01T00:15:27;20.58;;;7.70;;
77513;SDS011;66626;48.872;9.084;2023-03-01T00:17:52;17.50;;;9.30;;
77513;SDS011;66626;48.872;9.084;2023-03-01T00:20:18;16.27;;;8.15;;
77513;SDS011;66626;48.872;9.084;2023-03-01T00:22:43;17.63;;;7.57;;
77513;SDS011;66626;48.872;9.084;2023-03-01T00:25:08;15.98;;;7.05;;
77513;SDS011;66626;48.872;9.084;2023-03-01T00:27:34;16.33;;;8.02;;
77513;SDS011;66626;48.872;9.084;2023-03-01T00:29:59;14.52;;;7.63;;
77513;SDS011;66626;48.872;9.084;2023-03-01T00:32:24;13.05;;;7.32;;
77513;SDS011;66626;48.872;9.084;2023-03-01T00:34:50;14.55;;;7.85;;
77513;SDS011;66626;48.872;9.084;2023-03-01T00:37:22;13.68;;;7.53;;
77513;SDS011;66626;48.872;9.084;2023-03-01T00:39:48;22.13;;;10.15;;
77513;SDS011;66626;48.872;9.084;2023-03-01T00:42:14;19.98;;;9.02;;
77513;SDS011;66626;48.872;9.084;2023-03-01T00:44:39;20.63;;;9.38;;
77513;SDS011;66626;48.872;9.084;2023-03-01T00:47:05;14.27;;;9.02;;
77513;SDS011;66626;48.872;9.084;2023-03-01T00:49:30;21.10;;;8.73;;
77513;SDS011;66626;48.872;9.084;2023-03-01T00:51:55;13.85;;;7.28;;
77513;SDS011;66626;48.872;9.084;2023-03-01T00:54:21;16.48;;;7.93;;
77513;SDS011;66626;48.872;9.084;2023-03-01T00:56:46;15.00;;;8.60;;
77513;SDS011;66626;48.872;9.084;2023-03-01T00:59:11;21.52;;;8.85;;
77513;SDS011;66626;48.872;9.084;2023-03-01T01:01:39;18.23;;;9.32;;
77513;SDS011;66626;48.872;9.084;2023-03-01T01:04:06;15.75;;;7.60;;
77513;SDS011;66626;48.872;9.084;2023-03-01T01:06:34;18.13;;;9.13;;
77513;SDS011;66626;48.872;9.084;2023-03-01T01:09:01;21.02;;;8.48;;
77513;SDS011;66626;48.872;9.084;2023-03-01T01:11:28;18.10;;;8.93;;
77513;SDS011;66626;48.872;9.084;2023-03-01T01:13:54;18.40;;;8.23;;
77513;SDS011;66626;48.872;9.084;2023-03-01T01:16:21;14.90;;;7.43;;
77513;SDS011;66626;48.872;9.084;2023-03-01T01:18:47;14.82;;;7.18;;
77513;SDS011;66626;48.872;9.084;2023-03-01T01:21:13;15.32;;;7.10;;
77513;SDS011;66626;48.872;9.084;2023-03-01T01:23:40;16.75;;;7.22;;
77513;SDS011;66626;48.872;9.084;2023-03-01T01:26:07;14.70;;;7.68;;
77513;SDS011;66626;48.872;9.084;2023-03-01T01:28:34;18.00;;;8.43;;
77513;SDS011;66626;48.872;9.084;2023-03-01T01:30:59;15.90;;;7.03;;
77513;SDS011;66626;48.872;9.084;2023-03-01T01:33:24;16.65;;;7.95;;
77513;SDS011;66626;48.872;9.084;2023-03-01T01:35:50;15.98;;;7.25;;
77513;SDS011;66626;48.872;9.084;2023-03-01T01:38:15;14.02;;;6.78;;
77513;SDS011;66626;48.872;9.084;2023-03-01T01:40:44;15.48;;;7.72;;
77513;SDS011;66626;48.872;9.084;2023-03-01T01:43:17;23.50;;;8.07;;
77513;SDS011;66626;48.872;9.084;2023-03-01T01:45:45;12.73;;;6.65;;
77513;SDS011;66626;48.872;9.084;2023-03-01T01:48:11;15.43;;;7.72;;
77513;SDS011;66626;48.872;9.084;2023-03-01T01:50:39;17.75;;;7.45;;
77513;SDS011;66626;48.872;9.084;2023-03-01T01:53:09;14.25;;;7.45;;
77513;SDS011;66626;48.872;9.084;2023-03-01T01:55:39;15.65;;;6.53;;
77513;SDS011;66626;48.872;9.084;2023-03-01T01:58:08;15.18;;;6.68;;
77513;SDS011;66626;48.872;9.084;2023-03-01T02:00:34;17.73;;;8.80;;
77513;SDS011;66626;48.872;9.084;2023-03-01T02:03:03;14.75;;;7.60;;
77513;SDS011;66626;48.872;9.084;2023-03-01T02:08:18;14.95;;;6.97;;
77513;SDS011;66626;48.872;9.084;2023-03-01T02:10:45;14.82;;;6.50;;
77513;SDS011;66626;48.872;9.084;2023-03-01T02:13:10;15.85;;;7.82;;
77513;SDS011;66626;48.872;9.084;2023-03-01T02:15:37;19.67;;;7.55;;
77513;SDS011;66626;48.872;9.084;2023-03-01T02:18:04;14.88;;;7.03;;
77513;SDS011;66626;48.872;9.084;2023-03-01T02:20:51;14.20;;;6.88;;
77513;SDS011;66626;48.872;9.084;2023-03-01T02:23:58;19.42;;;6.47;;
77513;SDS011;66626;48.872;9.084;2023-03-01T02:28:58;16.83;;;7.10;;
77513;SDS011;66626;48.872;9.084;2023-03-01T02:31:24;13.02;;;6.40;;
77513;SDS011;66626;48.872;9.084;2023-03-01T02:34:15;13.98;;;7.35;;
77513;SDS011;66626;48.872;9.084;2023-03-01T02:36:45;16.13;;;7.60;;
77513;SDS011;66626;48.872;9.084;2023-03-01T02:39:13;14.85;;;8.30;;
77513;SDS011;66626;48.872;9.084;2023-03-01T02:41:49;13.70;;;7.25;;
77513;SDS011;66626;48.872;9.084;2023-03-01T02:44:16;13.95;;;6.60;;
77513;SDS011;66626;48.872;9.084;2023-03-01T02:46:43;18.05;;;8.02;;
77513;SDS011;66626;48.872;9.084;2023-03-01T02:49:27;16.70;;;7.75;;
77513;SDS011;66626;48.872;9.084;2023-03-01T02:57:14;15.25;;;6.57;;
77513;SDS011;66626;48.872;9.084;2023-03-01T02:59:39;15.50;;;7.18;;
77513;SDS011;66626;48.872;9.084;2023-03-01T03:02:18;14.30;;;7.22;;
77513;SDS011;66626;48.872;9.084;2023-03-01T03:04:47;13.20;;;6.50;;
77513;SDS011;66626;48.872;9.084;2023-03-01T03:07:12;13.57;;;6.50;;
77513;SDS011;66626;48.872;9.084;2023-03-01T03:09:37;16.15;;;7.22;;
77513;SDS011;66626;48.872;9.084;2023-03-01T03:12:03;14.15;;;6.25;;
77513;SDS011;66626;48.872;9.084;2023-03-01T03:14:28;14.00;;;7.28;;
77513;SDS011;66626;48.872;9.084;2023-03-01T03:16:53;18.15;;;8.15;;
77513;SDS011;66626;48.872;9.084;2023-03-01T03:19:19;17.02;;;7.35;;
77513;SDS011;66626;48.872;9.084;2023-03-01T03:21:44;18.27;;;6.97;;
77513;SDS011;66626;48.872;9.084;2023-03-01T03:24:10;15.02;;;7.18;;
77513;SDS011;66626;48.872;9.084;2023-03-01T03:26:35;14.50;;;7.57;;
77513;SDS011;66626;48.872;9.084;2023-03-01T03:29:01;15.40;;;7.60;;
77513;SDS011;66626;48.872;9.084;2023-03-01T03:31:27;17.58;;;7.03;;
77513;SDS011;66626;48.872;9.084;2023-03-01T03:33:52;12.95;;;7.32;;
77513;SDS011;66626;48.872;9.084;2023-03-01T03:36:19;17.33;;;7.63;;
77513;SDS011;66626;48.872;9.084;2023-03-01T03:38:46;16.00;;;7.60;;
77513;SDS011;66626;48.872;9.084;2023-03-01T03:41:11;17.90;;;7.88;;
77513;SDS011;66626;48.872;9.084;2023-03-01T03:43:38;15.82;;;7.35;;
77513;SDS011;66626;48.872;9.084;2023-03-01T03:46:05;19.15;;;8.63;;
77513;SDS011;66626;48.872;9.084;2023-03-01T03:48:31;13.93;;;6.93;;
77513;SDS011;66626;48.872;9.084;2023-03-01T03:50:58;15.77;;;6.70;;
77513;SDS011;66626;48.872;9.084;2023-03-01T03:53:24;14.65;;;5.95;;
77513;SDS011;66626;48.872;9.084;2023-03-01T03:55:50;17.83;;;8.35;;
77513;SDS011;66626;48.872;9.084;2023-03-01T03:58:16;13.38;;;7.03;;
77513;SDS011;66626;48.872;9.084;2023-03-01T04:00:44;16.88;;;8.68;;
77513;SDS011;66626;48.872;9.084;2023-03-01T04:03:12;19.02;;;8.23;;
77513;SDS011;66626;48.872;9.084;2023-03-01T04:05:38;16.63;;;6.57;;
77513;SDS011;66626;48.872;9.084;2023-03-01T04:08:04;19.58;;;7.75;;
77513;SDS011;66626;48.872;9.084;2023-03-01T04:10:34;15.35;;;7.05;;
77513;SDS011;66626;48.872;9.084;2023-03-01T04:13:08;15.13;;;7.88;;
77513;SDS011;66626;48.872;9.084;2023-03-01T04:15:35;12.20;;;6.72;;
77513;SDS011;66626;48.872;9.084;2023-03-01T04:18:01;16.48;;;8.88;;
77513;SDS011;66626;48.872;9.084;2023-03-01T04:20:28;18.35;;;8.73;;
77513;SDS011;66626;48.872;9.084;2023-03-01T04:22:58;15.07;;;6.82;;
77513;SDS011;66626;48.872;9.084;2023-03-01T04:25:35;13.15;;;7.65;;
77513;SDS011;66626;48.872;9.084;2023-03-01T04:28:08;16.08;;;8.07;;
77513;SDS011;66626;48.872;9.084;2023-03-01T04:30:34;22.20;;;9.05;;
77513;SDS011;66626;48.872;9.084;2023-03-01T04:33:01;15.02;;;8.10;;
77513;SDS011;66626;48.872;9.084;2023-03-01T04:35:30;14.23;;;7.28;;
77513;SDS011;66626;48.872;9.084;2023-03-01T04:37:55;15.02;;;7.57;;
77513;SDS011;66626;48.872;9.084;2023-03-01T04:40:21;16.27;;;7.88;;
77513;SDS011;66626;48.872;9.084;2023-03-01T04:42:46;16.48;;;8.45;;
77513;SDS011;66626;48.872;9.084;2023-03-01T04:45:12;14.25;;;7.07;;
77513;SDS011;66626;48.872;9.084;2023-03-01T04:47:41;15.65;;;7.93;;
77513;SDS011;66626;48.872;9.084;2023-03-01T04:50:08;13.63;;;7.70;;
77513;SDS011;66626;48.872;9.084;2023-03-01T04:52:34;15.52;;;8.55;;
77513;SDS011;66626;48.872;9.084;2023-03-01T04:55:00;18.83;;;8.13;;
77513;SDS011;66626;48.872;9.084;2023-03-01T04:57:25;14.73;;;7.90;;
77513;SDS011;66626;48.872;9.084;2023-03-01T04:59:51;19.33;;;8.13;;
77513;SDS011;66626;48.872;9.084;2023-03-01T05:02:16;14.75;;;7.20;;
77513;SDS011;66626;48.872;9.084;2023-03-01T05:04:41;19.15;;;7.63;;
77513;SDS011;66626;48.872;9.084;2023-03-01T05:07:06;14.85;;;7.13;;
77513;SDS011;66626;48.872;9.084;2023-03-01T05:09:32;16.05;;;7.88;;
77513;SDS011;66626;48.872;9.084;2023-03-01T05:11:57;18.58;;;8.55;;
77513;SDS011;66626;48.872;9.084;2023-03-01T05:14:22;17.00;;;8.38;;
77513;SDS011;66626;48.872;9.084;2023-03-01T05:16:48;15.48;;;8.55;;
77513;SDS011;66626;48.872;9.084;2023-03-01T05:19:13;24.95;;;9.20;;
77513;SDS011;66626;48.872;9.084;2023-03-01T05:21:40;18.65;;;8.65;;
77513;SDS011;66626;48.872;9.084;2023-03-01T05:24:26;21.25;;;9.35;;
77513;SDS011;66626;48.872;9.084;2023-03-01T05:26:52;15.55;;;7.72;;
77513;SDS011;66626;48.872;9.084;2023-03-01T05:29:21;16.90;;;8.25;;
77513;SDS011;66626;48.872;9.084;2023-03-01T05:31:59;17.30;;;8.38;;
77513;SDS011;66626;48.872;9.084;2023-03-01T05:34:26;17.23;;;7.13;;
77513;SDS011;66626;48.872;9.084;2023-03-01T05:36:52;17.10;;;8.25;;
77513;SDS011;66626;48.872;9.084;2023-03-01T05:39:22;20.20;;;9.70;;
77513;SDS011;66626;48.872;9.084;2023-03-01T05:41:52;18.95;;;8.57;;
77513;SDS011;66626;48.872;9.084;2023-03-01T05:44:27;22.92;;;11.13;;
77513;SDS011;66626;48.872;9.084;2023-03-01T05:46:53;20.83;;;10.18;;
77513;SDS011;66626;48.872;9.084;2023-03-01T05:49:19;20.58;;;10.00;;
77513;SDS011;66626;48.872;9.084;2023-03-01T05:51:47;18.95;;;9.43;;
77513;SDS011;66626;48.872;9.084;2023-03-01T05:54:13;17.10;;;8.60;;
77513;SDS011;66626;48.872;9.084;2023-03-01T05:56:39;23.85;;;9.70;;
77513;SDS011;66626;48.872;9.084;2023-03-01T05:59:05;18.58;;;9.20;;
77513;SDS011;66626;48.872;9.084;2023-03-01T06:01:31;15.30;;;8.00;;
77513;SDS011;66626;48.872;9.084;2023-03-01T06:03:57;16.98;;;8.07;;
77513;SDS011;66626;48.872;9.084;2023-03-01T06:06:22;18.17;;;8.20;;
77513;SDS011;66626;48.872;9.084;2023-03-01T06:08:48;18.55;;;9.43;;
77513;SDS011;66626;48.872;9.084;2023-03-01T06:11:14;18.00;;;8.95;;
77513;SDS011;66626;48.872;9.084;2023-03-01T06:13:40;22.73;;;10.20;;
77513;SDS011;66626;48.872;9.084;2023-03-01T06:16:09;16.05;;;8.88;;
77513;SDS011;66626;48.872;9.084;2023-03-01T06:18:34;18.85;;;8.43;;
77513;SDS011;66626;48.872;9.084;2023-03-01T06:21:00;20.85;;;9.77;;
77513;SDS011;66626;48.872;9.084;2023-03-01T06:23:25;24.88;;;11.65;;
77513;SDS011;66626;48.872;9.084;2023-03-01T06:25:51;26.67;;;12.32;;
77513;SDS011;66626;48.872;9.084;2023-03-01T06:28:16;21.73;;;9.00;;
77513;SDS011;66626;48.872;9.084;2023-03-01T06:30:42;16.80;;;8.13;;
77513;SDS011;66626;48.872;9.084;2023-03-01T06:33:07;16.92;;;9.43;;
77513;SDS011;66626;48.872;9.084;2023-03-01T06:35:33;20.85;;;9.23;;
77513;SDS011;66626;48.872;9.084;2023-03-01T06:37:59;17.23;;;9.23;;
77513;SDS011;66626;48.872;9.084;2023-03-01T06:40:25;17.48;;;7.97;;
77513;SDS011;66626;48.872;9.084;2023-03-01T06:42:51;28.67;;;10.20;;
77513;SDS011;66626;48.872;9.084;2023-03-01T06:45:17;18.88;;;8.85;;
77513;SDS011;66626;48.872;9.084;2023-03-01T06:47:43;20.08;;;10.23;;
77513;SDS011;66626;48.872;9.084;2023-03-01T06:50:09;22.20;;;10.32;;
77513;SDS011;66626;48.872;9.084;2023-03-01T06:52:35;16.55;;;8.68;;
77513;SDS011;66626;48.872;9.084;2023-03-01T06:55:00;23.67;;;10.05;;
77513;SDS011;66626;48.872;9.084;2023-03-01T06:57:26;24.25;;;10.50;;
77513;SDS011;66626;48.872;9.084;2023-03-01T06:59:51;16.98;;;8.02;;
77513;SDS011;66626;48.872;9.084;2023-03-01T07:02:16;19.80;;;9.82;;
77513;SDS011;66626;48.872;9.084;2023-03-01T07:04:42;16.50;;;8.07;;
77513;SDS011;66626;48.872;9.084;2023-03-01T07:07:07;18.98;;;10.68;;
77513;SDS011;66626;48.872;9.084;2023-03-01T07:09:33;16.42;;;9.20;;
77513;SDS011;66626;48.872;9.084;2023-03-01T07:11:58;18.08;;;9.82;;
77513;SDS011;66626;48.872;9.084;2023-03-01T07:14:23;26.60;;;10.23;;
77513;SDS011;66626;48.872;9.084;2023-03-01T07:16:50;24.63;;;9.88;;
77513;SDS011;66626;48.872;9.084;2023-03-01T07:19:16;25.08;;;11.43;;
77513;SDS011;66626;48.872;9.084;2023-03-01T07:21:41;20.13;;;9.35;;
77513;SDS011;66626;48.872;9.084;2023-03-01T07:24:06;20.83;;;9.73;;
77513;SDS011;66626;48.872;9.084;2023-03-01T07:26:32;23.20;;;10.48;;
77513;SDS011;66626;48.872;9.084;2023-03-01T07:29:02;28.08;;;11.38;;
77513;SDS011;66626;48.872;9.084;2023-03-01T07:31:28;21.02;;;8.90;;
77513;SDS011;66626;48.872;9.084;2023-03-01T07:33:54;27.17;;;8.52;;
77513;SDS011;66626;48.872;9.084;2023-03-01T07:36:19;17.20;;;10.13;;
77513;SDS011;66626;48.872;9.084;2023-03-01T07:38:44;25.83;;;11.85;;
77513;SDS011;66626;48.872;9.084;2023-03-01T07:41:10;19.67;;;10.18;;
77513;SDS011;66626;48.872;9.084;2023-03-01T07:43:35;20.50;;;9.43;;
77513;SDS011;66626;48.872;9.084;2023-03-01T07:46:01;19.75;;;10.35;;
77513;SDS011;66626;48.872;9.084;2023-03-01T07:48:26;19.40;;;9.02;;
77513;SDS011;66626;48.872;9.084;2023-03-01T07:50:52;20.05;;;9.55;;
77513;SDS011;66626;48.872;9.084;2023-03-01T07:53:17;15.43;;;9.07;;
77513;SDS011;66626;48.872;9.084;2023-03-01T07:55:43;22.75;;;10.88;;
77513;SDS011;66626;48.872;9.084;2023-03-01T07:58:08;22.48;;;9.95;;
77513;SDS011;66626;48.872;9.084;2023-03-01T08:00:34;19.92;;;9.27;;
77513;SDS011;66626;48.872;9.084;2023-03-01T08:02:59;22.58;;;10.20;;
77513;SDS011;66626;48.872;9.084;2023-03-01T08:05:25;24.65;;;11.57;;
77513;SDS011;66626;48.872;9.084;2023-03-01T08:07:51;17.55;;;9.20;;
77513;SDS011;66626;48.872;9.084;2023-03-01T08:10:16;24.08;;;9.70;;
77513;SDS011;66626;48.872;9.084;2023-03-01T08:12:42;18.23;;;10.90;;
77513;SDS011;66626;48.872;9.084;2023-03-01T08:15:07;20.73;;;10.95;;
77513;SDS011;66626;48.872;9.084;2023-03-01T08:17:33;23.30;;;11.18;;
77513;SDS011;66626;48.872;9.084;2023-03-01T08:19:58;24.17;;;9.85;;
77513;SDS011;66626;48.872;9.084;2023-03-01T08:22:23;21.30;;;10.13;;
77513;SDS011;66626;48.872;9.084;2023-03-01T08:24:49;19.17;;;10.00;;
77513;SDS011;66626;48.872;9.084;2023-03-01T08:27:15;22.45;;;9.65;;
77513;SDS011;66626;48.872;9.084;2023-03-01T08:29:41;28.35;;;12.93;;
77513;SDS011;66626;48.872;9.084;2023-03-01T08:32:06;27.55;;;12.48;;
77513;SDS011;66626;48.872;9.084;2023-03-01T08:34:32;22.42;;;10.90;;
77513;SDS011;66626;48.872;9.084;2023-03-01T08:37:00;23.77;;;10.27;;
77513;SDS011;66626;48.872;9.084;2023-03-01T08:39:26;24.65;;;10.73;;
77513;SDS011;66626;48.872;9.084;2023-03-01T08:41:52;21.88;;;10.13;;
77513;SDS011;66626;48.872;9.084;2023-03-01T08:44:17;21.33;;;9.77;;
77513;SDS011;66626;48.872;9.084;2023-03-01T08:46:43;21.33;;;11.18;;
77513;SDS011;66626;48.872;9.084;2023-03-01T08:49:14;20.92;;;10.90;;
77513;SDS011;66626;48.872;9.084;2023-03-01T08:51:41;23.13;;;9.30;;
77513;SDS011;66626;48.872;9.084;2023-03-01T08:54:09;20.42;;;10.73;;
77513;SDS011;66626;48.872;9.084;2023-03-01T08:56:36;18.60;;;9.77;;
77513;SDS011;66626;48.872;9.084;2023-03-01T08:59:01;20.70;;;11.05;;
77513;SDS011;66626;48.872;9.084;2023-03-01T09:01:27;21.63;;;10.27;;
77513;SDS011;66626;48.872;9.084;2023-03-01T09:03:52;21.48;;;10.85;;
77513;SDS011;66626;48.872;9.084;2023-03-01T09:06:18;19.20;;;10.00;;
77513;SDS011;66626;48.872;9.084;2023-03-01T09:08:44;22.90;;;10.77;;
77513;SDS011;66626;48.872;9.084;2023-03-01T09:11:12;22.02;;;11.38;;
77513;SDS011;66626;48.872;9.084;2023-03-01T09:13:38;24.33;;;13.65;;
77513;SDS011;66626;48.872;9.084;2023-03-01T09:16:04;25.38;;;11.57;;
77513;SDS011;66626;48.872;9.084;2023-03-01T09:18:31;25.27;;;12.00;;
77513;SDS011;66626;48.872;9.084;2023-03-01T09:21:07;20.60;;;10.50;;
77513;SDS011;66626;48.872;9.084;2023-03-01T09:23:37;27.50;;;12.88;;
77513;SDS011;66626;48.872;9.084;2023-03-01T09:28:29;23.75;;;11.75;;
77513;SDS011;66626;48.872;9.084;2023-03-01T09:30:57;20.88;;;10.68;;
77513;SDS011;66626;48.872;9.084;2023-03-01T09:33:26;20.20;;;10.77;;
77513;SDS011;66626;48.872;9.084;2023-03-01T09:35:56;19.33;;;10.52;;
77513;SDS011;66626;48.872;9.084;2023-03-01T09:38:22;20.45;;;10.95;;
77513;SDS011;66626;48.872;9.084;2023-03-01T09:40:47;19.50;;;10.45;;
77513;SDS011;66626;48.872;9.084;2023-03-01T09:43:15;21.00;;;11.48;;
77513;SDS011;66626;48.872;9.084;2023-03-01T09:45:46;19.70;;;11.15;;
77513;SDS011;66626;48.872;9.084;2023-03-01T09:48:16;20.13;;;10.95;;
77513;SDS011;66626;48.872;9.084;2023-03-01T09:50:42;21.17;;;10.63;;
77513;SDS011;66626;48.872;9.084;2023-03-01T09:56:00;22.15;;;11.32;;
77513;SDS011;66626;48.872;9.084;2023-03-01T10:00:59;21.13;;;11.20;;
77513;SDS011;66626;48.872;9.084;2023-03-01T10:03:30;24.05;;;12.35;;
77513;SDS011;66626;48.872;9.084;2023-03-01T10:06:02;26.05;;;12.25;;
77513;SDS011;66626;48.872;9.084;2023-03-01T10:08:34;20.45;;;9.77;;
77513;SDS011;66626;48.872;9.084;2023-03-01T10:11:16;21.20;;;11.07;;
77513;SDS011;66626;48.872;9.084;2023-03-01T10:19:29;25.90;;;11.73;;
77513;SDS011;66626;48.872;9.084;2023-03-01T10:21:57;16.38;;;10.20;;
77513;SDS011;66626;48.872;9.084;2023-03-01T10:24:28;19.95;;;11.02;;
77513;SDS011;66626;48.872;9.084;2023-03-01T10:26:57;23.23;;;10.68;;
77513;SDS011;66626;48.872;9.084;2023-03-01T10:29:30;23.48;;;12.27;;
77513;SDS011;66626;48.872;9.084;2023-03-01T10:31:59;22.52;;;11.02;;
77513;SDS011;66626;48.872;9.084;2023-03-01T10:34:29;23.75;;;12.95;;
77513;SDS011;66626;48.872;9.084;2023-03-01T10:36:57;19.85;;;10.43;;
77513;SDS011;66626;48.872;9.084;2023-03-01T10:41:52;20.20;;;10.83;;
77513;SDS011;66626;48.872;9.084;2023-03-01T10:44:39;22.17;;;10.45;;
77513;SDS011;66626;48.872;9.084;2023-03-01T10:47:12;21.48;;;11.45;;
77513;SDS011;66626;48.872;9.084;2023-03-01T10:49:38;19.38;;;10.43;;
77513;SDS011;66626;48.872;9.084;2023-03-01T10:52:11;21.67;;;12.32;;
77513;SDS011;66626;48.872;9.084;2023-03-01T10:54:43;21.83;;;10.85;;
77513;SDS011;66626;48.872;9.084;2023-03-01T11:00:05;21.60;;;11.88;;
77513;SDS011;66626;48.872;9.084;2023-03-01T11:02:42;17.70;;;10.85;;
77513;SDS011;66626;48.872;9.084;2023-03-01T11:10:17;20.38;;;10.18;;
77513;SDS011;66626;48.872;9.084;2023-03-01T11:12:44;18.58;;;10.55;;
77513;SDS011;66626;48.872;9.084;2023-03-01T11:15:19;17.65;;;10.30;;
77513;SDS011;66626;48.872;9.084;2023-03-01T11:17:49;20.52;;;11.95;;
77513;SDS011;66626;48.872;9.084;2023-03-01T11:20:21;18.33;;;11.10;;
77513;SDS011;66626;48.872;9.084;2023-03-01T11:22:52;19.73;;;10.48;;
77513;SDS011;66626;48.872;9.084;2023-03-01T11:25:19;19.92;;;10.32;;
77513;SDS011;66626;48.872;9.084;2023-03-01T11:27:48;19.45;;;11.50;;
77513;SDS011;66626;48.872;9.084;2023-03-01T11:30:18;19.38;;;11.15;;
77513;SDS011;66626;48.872;9.084;2023-03-01T11:32:56;17.48;;;10.65;;
77513;SDS011;66626;48.872;9.084;2023-03-01T11:35:27;19.88;;;10.77;;
77513;SDS011;66626;48.872;9.084;2023-03-01T11:38:39;20.02;;;11.20;;
77513;SDS011;66626;48.872;9.084;2023-03-01T11:49:21;18.58;;;10.43;;
77513;SDS011;66626;48.872;9.084;2023-03-01T11:57:15;17.27;;;10.05;;
77513;SDS011;66626;48.872;9.084;2023-03-01T12:03:07;17.00;;;9.63;;
77513;SDS011;66626;48.872;9.084;2023-03-01T12:13:26;17.65;;;10.40;;
77513;SDS011;66626;48.872;9.084;2023-03-01T12:15:55;16.10;;;10.20;;
77513;SDS011;66626;48.872;9.084;2023-03-01T12:19:08;17.00;;;9.88;;
77513;SDS011;66626;48.872;9.084;2023-03-01T12:29:38;20.25;;;11.70;;
77513;SDS011;66626;48.872;9.084;2023-03-01T12:34:46;17.25;;;10.10;;
77513;SDS011;66626;48.872;9.084;2023-03-01T12:37:22;18.25;;;10.88;;
77513;SDS011;66626;48.872;9.084;2023-03-01T12:48:38;17.48;;;10.55;;
77513;SDS011;66626;48.872;9.084;2023-03-01T12:51:08;19.38;;;11.00;;
77513;SDS011;66626;48.872;9.084;2023-03-01T12:53:50;17.33;;;9.45;;
77513;SDS011;66626;48.872;9.084;2023-03-01T12:56:18;20.17;;;10.82;;
77513;SDS011;66626;48.872;9.084;2023-03-01T13:04:18;22.80;;;12.57;;
77513;SDS011;66626;48.872;9.084;2023-03-01T13:09:39;19.50;;;10.52;;
77513;SDS011;66626;48.872;9.084;2023-03-01T13:17:49;20.80;;;10.45;;
77513;SDS011;66626;48.872;9.084;2023-03-01T13:20:16;18.48;;;11.57;;
77513;SDS011;66626;48.872;9.084;2023-03-01T13:22:45;16.98;;;10.25;;
77513;SDS011;66626;48.872;9.084;2023-03-01T13:25:12;18.15;;;10.82;;
77513;SDS011;66626;48.872;9.084;2023-03-01T13:27:42;20.00;;;11.68;;
77513;SDS011;66626;48.872;9.084;2023-03-01T13:30:37;19.40;;;10.90;;
77513;SDS011;66626;48.872;9.084;2023-03-01T13:35:55;19.02;;;10.93;;
77513;SDS011;66626;48.872;9.084;2023-03-01T13:41:03;18.75;;;10.95;;
77513;SDS011;66626;48.872;9.084;2023-03-01T13:43:30;19.77;;;10.70;;
77513;SDS011;66626;48.872;9.084;2023-03-01T13:46:17;19.17;;;9.32;;
77513;SDS011;66626;48.872;9.084;2023-03-01T13:48:45;19.40;;;10.77;;
77513;SDS011;66626;48.872;9.084;2023-03-01T13:51:14;21.00;;;11.38;;
77513;SDS011;66626;48.872;9.084;2023-03-01T13:53:41;19.30;;;10.80;;
77513;SDS011;66626;48.872;9.084;2023-03-01T13:56:17;17.38;;;10.80;;
77513;SDS011;66626;48.872;9.084;2023-03-01T13:59:12;19.88;;;11.13;;
77513;SDS011;66626;48.872;9.084;2023-03-01T14:01:39;18.45;;;10.82;;
77513;SDS011;66626;48.872;9.084;2023-03-01T14:04:19;17.75;;;9.77;;
77513;SDS011;66626;48.872;9.084;2023-03-01T14:06:50;20.17;;;11.50;;
77513;SDS011;66626;48.872;9.084;2023-03-01T14:09:18;21.05;;;11.35;;
77513;SDS011;66626;48.872;9.084;2023-03-01T14:11:53;22.17;;;11.68;;
77513;SDS011;66626;48.872;9.084;2023-03-01T14:19:42;21.63;;;11.80;;
77513;SDS011;66626;48.872;9.084;2023-03-01T14:22:20;23.38;;;12.70;;
77513;SDS011;66626;48.872;9.084;2023-03-01T14:24:50;23.48;;;13.02;;
77513;SDS011;66626;48.872;9.084;2023-03-01T14:27:16;16.25;;;10.65;;
77513;SDS011;66626;48.872;9.084;2023-03-01T14:29:42;18.75;;;10.43;;
77513;SDS011;66626;48.872;9.084;2023-03-01T14:32:10;18.20;;;10.68;;
77513;SDS011;66626;48.872;9.084;2023-03-01T14:34:38;18.25;;;11.45;;
77513;SDS011;66626;48.872;9.084;2023-03-01T14:37:09;20.15;;;9.90;;
77513;SDS011;66626;48.872;9.084;2023-03-01T14:39:40;19.10;;;10.70;;
77513;SDS011;66626;48.872;9.084;2023-03-01T14:42:05;21.55;;;10.88;;
77513;SDS011;66626;48.872;9.084;2023-03-01T14:44:30;24.73;;;12.80;;
77513;SDS011;66626;48.872;9.084;2023-03-01T14:46:58;21.80;;;11.07;;
77513;SDS011;66626;48.872;9.084;2023-03-01T14:49:28;18.13;;;9.73;;
77513;SDS011;66626;48.872;9.084;2023-03-01T14:54:37;18.52;;;10.07;;
77513;SDS011;66626;48.872;9.084;2023-03-01T14:57:05;18.33;;;11.02;;
77513;SDS011;66626;48.872;9.084;2023-03-01T14:59:32;18.00;;;11.00;;
77513;SDS011;66626;48.872;9.084;2023-03-01T15:01:58;19.08;;;10.70;;
77513;SDS011;66626;48.872;9.084;2023-03-01T15:04:24;19.75;;;10.50;;
77513;SDS011;66626;48.872;9.084;2023-03-01T15:06:51;19.17;;;10.70;;
77513;SDS011;66626;48.872;9.084;2023-03-01T15:09:17;18.63;;;10.95;;
77513;SDS011;66626;48.872;9.084;2023-03-01T15:11:43;17.50;;;10.32;;
77513;SDS011;66626;48.872;9.084;2023-03-01T15:20:03;18.73;;;10.80;;
77513;SDS011;66626;48.872;9.084;2023-03-01T15:22:30;17.38;;;10.63;;
77513;SDS011;66626;48.872;9.084;2023-03-01T15:24:55;16.48;;;9.88;;
77513;SDS011;66626;48.872;9.084;2023-03-01T15:27:22;26.23;;;15.18;;
77513;SDS011;66626;48.872;9.084;2023-03-01T15:29:53;19.77;;;11.45;;
77513;SDS011;66626;48.872;9.084;2023-03-01T15:32:31;19.40;;;10.43;;
77513;SDS011;66626;48.872;9.084;2023-03-01T15:34:58;20.42;;;10.75;;
77513;SDS011;66626;48.872;9.084;2023-03-01T15:40:25;19.67;;;11.02;;
77513;SDS011;66626;48.872;9.084;2023-03-01T15:42:57;18.85;;;10.48;;
77513;SDS011;66626;48.872;9.084;2023-03-01T15:45:25;18.73;;;10.18;;
77513;SDS011;66626;48.872;9.084;2023-03-01T15:47:53;19.60;;;10.35;;
77513;SDS011;66626;48.872;9.084;2023-03-01T15:50:29;18.83;;;10.63;;
77513;SDS011;66626;48.872;9.084;2023-03-01T15:52:58;21.70;;;11.30;;
77513;SDS011;66626;48.872;9.084;2023-03-01T15:55:25;18.95;;;10.20;;
77513;SDS011;66626;48.872;9.084;2023-03-01T15:57:59;19.33;;;11.10;;
77513;SDS011;66626;48.872;9.084;2023-03-01T16:00:26;20.33;;;10.98;;
77513;SDS011;66626;48.872;9.084;2023-03-01T16:02:52;20.90;;;10.18;;
77513;SDS011;66626;48.872;9.084;2023-03-01T16:05:21;19.25;;;10.25;;
77513;SDS011;66626;48.872;9.084;2023-03-01T16:07:49;16.73;;;9.73;;
77513;SDS011;66626;48.872;9.084;2023-03-01T16:10:15;19.45;;;10.20;;
77513;SDS011;66626;48.872;9.084;2023-03-01T16:12:40;21.98;;;11.18;;
77513;SDS011;66626;48.872;9.084;2023-03-01T16:15:12;20.80;;;10.60;;
77513;SDS011;66626;48.872;9.084;2023-03-01T16:17:45;20.60;;;10.57;;
77513;SDS011;66626;48.872;9.084;2023-03-01T16:20:11;21.50;;;11.18;;
77513;SDS011;66626;48.872;9.084;2023-03-01T16:22:36;17.45;;;10.15;;
77513;SDS011;66626;48.872;9.084;2023-03-01T16:25:01;18.55;;;9.63;;
77513;SDS011;66626;48.872;9.084;2023-03-01T16:27:27;19.35;;;9.60;;
77513;SDS011;66626;48.872;9.084;2023-03-01T16:29:53;19.08;;;9.73;;